createdAt,value
2022-08-23T00:00:17.954Z,97985.00
2022-08-23T00:02:53.509Z,97977.00
2022-08-23T00:05:28.651Z,97981.00
2022-08-23T00:08:04.126Z,97975.00
2022-08-23T00:10:39.022Z,97975.00
2022-08-23T00:13:14.105Z,97972.00
2022-08-23T00:15:49.210Z,97971.00
2022-08-23T00:18:24.684Z,97967.00
2022-08-23T00:20:59.719Z,97973.00
2022-08-23T00:23:34.680Z,97980.00
2022-08-23T00:26:09.685Z,97986.00
2022-08-23T00:28:44.665Z,97978.00
2022-08-23T00:31:20.394Z,97972.00
2022-08-23T00:33:55.346Z,97973.00
2022-08-23T00:36:30.269Z,97969.00
2022-08-23T00:39:06.780Z,97966.00
2022-08-23T00:41:42.298Z,97970.00
2022-08-23T00:45:05.686Z,97970.00
2022-08-23T00:47:41.759Z,97968.00
2022-08-23T00:50:49.552Z,97961.00
2022-08-23T00:53:29.700Z,97959.00
2022-08-23T00:56:09.082Z,97961.00
2022-08-23T00:58:46.305Z,97965.00
2022-08-23T01:01:21.616Z,97972.00
2022-08-23T01:04:04.110Z,97967.00
2022-08-23T01:06:58.916Z,97962.00
2022-08-23T01:09:33.979Z,97967.00
2022-08-23T01:12:15.144Z,97964.00
2022-08-23T01:14:59.768Z,97964.00
2022-08-23T01:17:50.760Z,97971.00
2022-08-23T01:20:27.007Z,97973.00
2022-08-23T01:23:24.133Z,97970.00
2022-08-23T01:25:59.302Z,97972.00
2022-08-23T01:28:35.306Z,97979.00
2022-08-23T01:31:12.462Z,97972.00
2022-08-23T01:34:00.213Z,97966.00
2022-08-23T01:36:35.951Z,97970.00
2022-08-23T01:39:11.421Z,97979.00
2022-08-23T01:41:47.129Z,97979.00
2022-08-23T01:44:22.134Z,97973.00
2022-08-23T01:46:58.033Z,97973.00
2022-08-23T01:49:34.973Z,97972.00
2022-08-23T01:52:10.343Z,97982.00
2022-08-23T01:54:45.918Z,97983.00
2022-08-23T01:57:20.969Z,97994.00
2022-08-23T01:59:57.709Z,97980.00
2022-08-23T02:02:32.773Z,97983.00
2022-08-23T02:05:09.964Z,97982.00
2022-08-23T02:07:46.281Z,97983.00
2022-08-23T02:10:22.903Z,97987.00
2022-08-23T02:12:59.704Z,97980.00
2022-08-23T02:15:35.110Z,97982.00
2022-08-23T02:18:11.106Z,97987.00
2022-08-23T02:20:52.060Z,97984.00
2022-08-23T02:23:28.002Z,97982.00
2022-08-23T02:26:03.029Z,97978.00
2022-08-23T02:28:38.100Z,97979.00
2022-08-23T02:31:13.403Z,97981.00
2022-08-23T02:36:46.284Z,97990.00
2022-08-23T02:39:21.459Z,97993.00
2022-08-23T02:41:57.402Z,97991.00
2022-08-23T02:44:34.717Z,97983.00
2022-08-23T02:47:11.998Z,97992.00
2022-08-23T02:49:51.780Z,97992.00
2022-08-23T02:52:26.787Z,97989.00
2022-08-23T02:55:02.403Z,97997.00
2022-08-23T02:57:39.579Z,97995.00
2022-08-23T03:00:16.859Z,97994.00
2022-08-23T03:02:52.217Z,98000.00
2022-08-23T03:05:28.100Z,98002.00
2022-08-23T03:08:03.969Z,97998.00
2022-08-23T03:10:47.101Z,97995.00
2022-08-23T03:13:22.120Z,97996.00
2022-08-23T03:15:58.576Z,97986.00
2022-08-23T03:18:34.772Z,97997.00
2022-08-23T03:21:11.160Z,97994.00
2022-08-23T03:23:46.421Z,98000.00
2022-08-23T03:26:21.519Z,97993.00
2022-08-23T03:28:57.156Z,97995.00
2022-08-23T03:31:36.511Z,97999.00
2022-08-23T03:34:17.068Z,97996.00
2022-08-23T03:36:52.026Z,98005.00
2022-08-23T03:39:27.482Z,98009.00
2022-08-23T03:42:04.279Z,97999.00
2022-08-23T03:44:41.746Z,98010.00
2022-08-23T03:47:17.439Z,98016.00
2022-08-23T03:49:54.611Z,98012.00
2022-08-23T03:52:29.584Z,98026.00
2022-08-23T03:55:06.007Z,98029.00
2022-08-23T03:57:43.528Z,98033.00
2022-08-23T04:00:20.395Z,98028.00
2022-08-23T04:02:57.123Z,98028.00
2022-08-23T04:05:34.143Z,98033.00
2022-08-23T04:08:14.231Z,98035.00
2022-08-23T04:10:53.546Z,98032.00
2022-08-23T04:13:30.961Z,98041.00
2022-08-23T04:16:09.138Z,98035.00
2022-08-23T04:18:44.484Z,98039.00
2022-08-23T04:21:23.481Z,98036.00
2022-08-23T04:23:58.492Z,98029.00
2022-08-23T04:26:33.818Z,98037.00
2022-08-23T04:29:09.180Z,98041.00
2022-08-23T04:31:46.384Z,98045.00
2022-08-23T04:34:24.361Z,98047.00
2022-08-23T04:37:03.963Z,98048.00
2022-08-23T04:40:03.264Z,98054.00
2022-08-23T04:42:46.782Z,98055.00
2022-08-23T04:45:21.828Z,98060.00
2022-08-23T04:48:00.498Z,98066.00
2022-08-23T04:50:36.196Z,98055.00
2022-08-23T04:53:20.868Z,98064.00
2022-08-23T04:56:19.927Z,98064.00
2022-08-23T04:58:55.210Z,98071.00
2022-08-23T05:01:30.405Z,98074.00
2022-08-23T05:04:05.788Z,98076.00
2022-08-23T05:06:45.786Z,98074.00
2022-08-23T05:09:20.970Z,98074.00
2022-08-23T05:11:57.291Z,98073.00
2022-08-23T05:14:33.268Z,98076.00
2022-08-23T05:17:08.358Z,98084.00
2022-08-23T05:19:47.084Z,98086.00
2022-08-23T05:22:23.461Z,98083.00
2022-08-23T05:25:17.111Z,98087.00
2022-08-23T05:27:56.581Z,98092.00
2022-08-23T05:30:31.587Z,98092.00
2022-08-23T05:33:06.927Z,98091.00
2022-08-23T05:35:42.071Z,98086.00
2022-08-23T05:38:20.814Z,98083.00
2022-08-23T05:40:59.796Z,98088.00
2022-08-23T05:43:36.296Z,98092.00
2022-08-23T05:46:21.957Z,98091.00
2022-08-23T05:49:21.031Z,98093.00
2022-08-23T05:51:57.304Z,98092.00
2022-08-23T05:54:36.387Z,98097.00
2022-08-23T05:57:25.797Z,98099.00
2022-08-23T06:00:00.890Z,98105.00
2022-08-23T06:02:37.409Z,98110.00
2022-08-23T06:05:13.500Z,98109.00
2022-08-23T06:07:49.764Z,98110.00
2022-08-23T06:10:26.941Z,98109.00
2022-08-23T06:13:11.791Z,98116.00
2022-08-23T06:15:46.772Z,98117.00
2022-08-23T06:18:22.118Z,98110.00
2022-08-23T06:21:08.312Z,98119.00
2022-08-23T06:23:54.926Z,98117.00
2022-08-23T06:26:36.198Z,98132.00
2022-08-23T06:29:18.765Z,98125.00
2022-08-23T06:31:55.958Z,98130.00
2022-08-23T06:34:38.104Z,98119.00
2022-08-23T06:37:31.571Z,98118.00
2022-08-23T06:40:11.618Z,98117.00
2022-08-23T06:42:55.477Z,98121.00
2022-08-23T06:45:37.172Z,98123.00
2022-08-23T06:48:15.892Z,98123.00
2022-08-23T06:50:53.318Z,98121.00
2022-08-23T06:53:38.838Z,98126.00
2022-08-23T06:56:35.222Z,98126.00
2022-08-23T06:59:14.495Z,98131.00
2022-08-23T07:02:18.459Z,98135.00
2022-08-23T07:05:05.888Z,98129.00
2022-08-23T07:07:46.765Z,98133.00
2022-08-23T07:10:21.774Z,98134.00
2022-08-23T07:12:57.976Z,98138.00
2022-08-23T07:15:33.029Z,98128.00
2022-08-23T07:18:13.271Z,98135.00
2022-08-23T07:20:48.840Z,98139.00
2022-08-23T07:23:25.013Z,98137.00
2022-08-23T07:26:11.568Z,98134.00
2022-08-23T07:28:47.659Z,98139.00
2022-08-23T07:31:27.149Z,98147.00
2022-08-23T07:34:05.971Z,98143.00
2022-08-23T07:36:45.129Z,98149.00
2022-08-23T07:39:23.383Z,98154.00
2022-08-23T07:42:16.517Z,98148.00
2022-08-23T07:45:00.035Z,98151.00
2022-08-23T07:47:36.025Z,98147.00
2022-08-23T07:50:11.290Z,98156.00
2022-08-23T07:52:46.304Z,98149.00
2022-08-23T07:55:22.765Z,98152.00
2022-08-23T07:58:11.796Z,98158.00
2022-08-23T08:01:17.340Z,98159.00
2022-08-23T08:03:59.577Z,98156.00
2022-08-23T08:07:04.907Z,98159.00
2022-08-23T08:09:47.239Z,98155.00
2022-08-23T08:12:24.217Z,98157.00
2022-08-23T08:15:02.499Z,98165.00
2022-08-23T08:17:50.111Z,98170.00
2022-08-23T08:20:26.776Z,98167.00
2022-08-23T08:23:33.535Z,98169.00
2022-08-23T08:26:23.244Z,98164.00
2022-08-23T08:29:04.914Z,98168.00
2022-08-23T08:31:45.489Z,98169.00
2022-08-23T08:34:20.894Z,98169.00
2022-08-23T08:36:59.010Z,98168.00
2022-08-23T08:39:35.348Z,98162.00
2022-08-23T08:42:12.725Z,98173.00
2022-08-23T08:45:07.535Z,98170.00
2022-08-23T08:48:00.985Z,98175.00
2022-08-23T08:50:50.185Z,98174.00
2022-08-23T08:53:40.251Z,98177.00
2022-08-23T08:56:32.283Z,98184.00
2022-08-23T08:59:30.084Z,98183.00
2022-08-23T09:02:31.795Z,98185.00
2022-08-23T09:05:24.438Z,98181.00
2022-08-23T09:08:46.316Z,98180.00
2022-08-23T09:12:03.909Z,98176.00
2022-08-23T09:14:57.024Z,98177.00
2022-08-23T09:17:58.667Z,98179.00
2022-08-23T09:20:34.844Z,98176.00
2022-08-23T09:23:29.489Z,98170.00
2022-08-23T09:26:25.569Z,98175.00
2022-08-23T09:29:13.176Z,98181.00
2022-08-23T09:32:18.625Z,98183.00
2022-08-23T09:35:23.123Z,98176.00
2022-08-23T09:38:20.391Z,98175.00
2022-08-23T09:41:00.377Z,98175.00
2022-08-23T09:43:48.279Z,98175.00
2022-08-23T09:46:33.761Z,98179.00
2022-08-23T09:49:29.699Z,98164.00
2022-08-23T09:52:22.517Z,98169.00
2022-08-23T09:55:34.073Z,98171.00
2022-08-23T09:58:45.125Z,98172.00
2022-08-23T10:01:28.087Z,98167.00
2022-08-23T10:04:29.392Z,98168.00
2022-08-23T10:07:24.660Z,98170.00
2022-08-23T10:10:30.351Z,98161.00
2022-08-23T10:13:09.944Z,98169.00
2022-08-23T10:16:22.447Z,98166.00
2022-08-23T10:19:48.188Z,98163.00
2022-08-23T10:22:28.825Z,98167.00
2022-08-23T10:25:40.714Z,98165.00
2022-08-23T10:28:58.566Z,98163.00
2022-08-23T10:31:44.520Z,98166.00
2022-08-23T10:34:39.019Z,98161.00
2022-08-23T10:37:35.387Z,98162.00
2022-08-23T10:40:56.060Z,98156.00
2022-08-23T10:43:53.477Z,98155.00
2022-08-23T10:46:31.489Z,98153.00
2022-08-23T10:49:12.749Z,98150.00
2022-08-23T10:51:51.817Z,98143.00
2022-08-23T10:55:00.442Z,98139.00
2022-08-23T10:57:40.588Z,98140.00
2022-08-23T11:00:27.379Z,98141.00
2022-08-23T11:03:20.121Z,98138.00
2022-08-23T11:06:26.587Z,98139.00
2022-08-23T11:09:21.483Z,98134.00
2022-08-23T11:12:27.765Z,98128.00
2022-08-23T11:15:18.596Z,98135.00
2022-08-23T11:18:01.092Z,98127.00
2022-08-23T11:20:49.544Z,98129.00
2022-08-23T11:23:46.265Z,98120.00
2022-08-23T11:26:27.705Z,98120.00
2022-08-23T11:29:11.515Z,98115.00
2022-08-23T11:32:29.957Z,98112.00
2022-08-23T11:35:24.717Z,98119.00
2022-08-23T11:38:04.975Z,98113.00
2022-08-23T11:40:52.914Z,98120.00
2022-08-23T11:43:40.012Z,98121.00
2022-08-23T11:46:27.183Z,98119.00
2022-08-23T11:49:30.105Z,98122.00
2022-08-23T11:52:13.957Z,98117.00
2022-08-23T11:55:22.581Z,98118.00
2022-08-23T11:58:23.396Z,98111.00
2022-08-23T12:01:08.419Z,98122.00
2022-08-23T12:03:56.979Z,98104.00
2022-08-23T12:06:55.974Z,98102.00
2022-08-23T12:09:31.068Z,98105.00
2022-08-23T12:12:25.503Z,98106.00
2022-08-23T12:15:07.398Z,98103.00
2022-08-23T12:17:42.302Z,98104.00
2022-08-23T12:20:29.875Z,98107.00
2022-08-23T12:23:16.720Z,98105.00
2022-08-23T12:26:35.263Z,98102.00
2022-08-23T12:29:25.821Z,98107.00
2022-08-23T12:32:22.158Z,98099.00
2022-08-23T12:35:18.841Z,98103.00
2022-08-23T12:38:07.210Z,98096.00
2022-08-23T12:40:51.657Z,98102.00
2022-08-23T12:43:30.934Z,98098.00
2022-08-23T12:46:06.894Z,98102.00
2022-08-23T12:48:47.096Z,98100.00
2022-08-23T12:51:22.122Z,98098.00
2022-08-23T12:54:00.213Z,98098.00
2022-08-23T12:56:36.462Z,98095.00
2022-08-23T12:59:31.692Z,98091.00
2022-08-23T13:02:15.742Z,98091.00
2022-08-23T13:04:54.260Z,98099.00
2022-08-23T13:07:30.049Z,98092.00
2022-08-23T13:10:07.884Z,98092.00
2022-08-23T13:12:43.296Z,98083.00
2022-08-23T13:15:51.223Z,98089.00
2022-08-23T13:18:43.276Z,98087.00
2022-08-23T13:21:27.632Z,98080.00
2022-08-23T13:24:37.802Z,98088.00
2022-08-23T13:27:26.300Z,98086.00
2022-08-23T13:30:24.963Z,98088.00
2022-08-23T13:33:14.891Z,98078.00
2022-08-23T13:36:05.803Z,98078.00
2022-08-23T13:38:48.702Z,98084.00
2022-08-23T13:41:38.810Z,98083.00
2022-08-23T13:44:19.068Z,98073.00
2022-08-23T13:46:54.455Z,98076.00
2022-08-23T13:49:29.883Z,98081.00
2022-08-23T13:52:41.623Z,98075.00
2022-08-23T13:55:05.374Z,98086.00
2022-08-23T13:57:41.162Z,98077.00
2022-08-23T14:00:19.628Z,98078.00
2022-08-23T14:02:54.978Z,98070.00
2022-08-23T14:05:30.603Z,98070.00
2022-08-23T14:08:09.762Z,98077.00
2022-08-23T14:10:46.494Z,98072.00
2022-08-23T14:13:28.696Z,98072.00
2022-08-23T14:22:00.642Z,98059.00
2022-08-23T14:24:35.655Z,98063.00
2022-08-23T14:27:11.519Z,98063.00
2022-08-23T14:29:46.521Z,98060.00
2022-08-23T14:32:21.699Z,98065.00
2022-08-23T14:34:56.683Z,98064.00
2022-08-23T14:40:26.902Z,98065.00
2022-08-23T14:43:02.412Z,98060.00
2022-08-23T14:45:37.906Z,98059.00
2022-08-23T14:48:13.001Z,98054.00
2022-08-23T14:50:48.042Z,98060.00
2022-08-23T14:53:27.908Z,98059.00
2022-08-23T14:56:20.524Z,98064.00
2022-08-23T14:58:55.964Z,98063.00
2022-08-23T15:01:33.264Z,98061.00
2022-08-23T15:04:08.558Z,98055.00
2022-08-23T15:07:06.932Z,98057.00
2022-08-23T15:09:39.396Z,98051.00
2022-08-23T15:15:21.771Z,98056.00
2022-08-23T15:18:00.423Z,98057.00
2022-08-23T15:20:38.911Z,98055.00
2022-08-23T15:23:14.244Z,98057.00
2022-08-23T15:25:50.951Z,98052.00
2022-08-23T15:28:26.050Z,98055.00
2022-08-23T15:31:01.432Z,98037.00
2022-08-23T15:33:36.495Z,98051.00
2022-08-23T15:36:14.624Z,98049.00
2022-08-23T15:38:50.743Z,98050.00
2022-08-23T15:41:25.753Z,98052.00
2022-08-23T15:44:01.686Z,98048.00
2022-08-23T15:46:38.228Z,98050.00
2022-08-23T15:49:16.869Z,98057.00
2022-08-23T15:51:53.566Z,98051.00
2022-08-23T15:54:28.652Z,98054.00
2022-08-23T15:57:04.512Z,98048.00
2022-08-23T15:59:40.637Z,98050.00
2022-08-23T16:02:16.371Z,98046.00
2022-08-23T16:04:51.432Z,98044.00
2022-08-23T16:07:26.474Z,98055.00
2022-08-23T16:10:03.204Z,98050.00
2022-08-23T16:12:39.493Z,98047.00
2022-08-23T16:15:15.564Z,98042.00
2022-08-23T16:17:50.666Z,98044.00
2022-08-23T16:20:25.905Z,98043.00
2022-08-23T16:23:01.173Z,98047.00
2022-08-23T16:25:36.666Z,98044.00
2022-08-23T16:28:11.894Z,98044.00
2022-08-23T16:30:47.005Z,98042.00
2022-08-23T16:33:22.068Z,98047.00
2022-08-23T16:35:57.171Z,98043.00
2022-08-23T16:38:32.192Z,98046.00
2022-08-23T16:41:07.399Z,98051.00
2022-08-23T16:43:42.946Z,98052.00
2022-08-23T16:46:19.165Z,98043.00
2022-08-23T16:48:54.604Z,98053.00
2022-08-23T16:51:30.301Z,98046.00
2022-08-23T16:54:06.241Z,98054.00
2022-08-23T16:56:42.062Z,98053.00
2022-08-23T16:59:17.280Z,98058.00
2022-08-23T17:02:00.823Z,98057.00
2022-08-23T17:04:46.975Z,98061.00
2022-08-23T17:07:25.247Z,98068.00
2022-08-23T17:10:00.350Z,98059.00
2022-08-23T17:12:40.629Z,98059.00
2022-08-23T17:15:23.849Z,98062.00
2022-08-23T17:18:00.757Z,98065.00
2022-08-23T17:20:39.179Z,98061.00
2022-08-23T17:23:14.205Z,98067.00
2022-08-23T17:25:49.358Z,98068.00
2022-08-23T17:28:24.381Z,98072.00
2022-08-23T17:30:59.414Z,98075.00
2022-08-23T17:33:34.718Z,98067.00
2022-08-23T17:36:38.429Z,98072.00
2022-08-23T17:39:18.623Z,98074.00
2022-08-23T17:41:53.968Z,98080.00
2022-08-23T17:44:28.976Z,98088.00
2022-08-23T17:47:07.809Z,98088.00
2022-08-23T17:49:45.482Z,98092.00
2022-08-23T17:52:20.989Z,98091.00
2022-08-23T17:54:57.034Z,98094.00
2022-08-23T17:57:32.338Z,98088.00
2022-08-23T18:00:08.753Z,98089.00
2022-08-23T18:02:44.954Z,98100.00
2022-08-23T18:05:20.062Z,98095.00
2022-08-23T18:07:55.126Z,98096.00
2022-08-23T18:10:30.917Z,98097.00
2022-08-23T18:13:06.162Z,98111.00
2022-08-23T18:15:41.168Z,98110.00
2022-08-23T18:18:16.227Z,98109.00
2022-08-23T18:20:51.278Z,98117.00
2022-08-23T18:23:26.401Z,98115.00
2022-08-23T18:26:30.348Z,98121.00
2022-08-23T18:29:06.388Z,98124.00
2022-08-23T18:31:44.141Z,98129.00
2022-08-23T18:34:19.724Z,98127.00
2022-08-23T18:36:55.528Z,98130.00
2022-08-23T18:39:32.284Z,98133.00
2022-08-23T18:42:09.123Z,98126.00
2022-08-23T18:44:44.183Z,98133.00
2022-08-23T18:47:19.162Z,98133.00
2022-08-23T18:49:54.218Z,98136.00
2022-08-23T18:52:30.932Z,98139.00
2022-08-23T18:55:07.730Z,98142.00
2022-08-23T18:57:43.255Z,98142.00
2022-08-23T19:00:18.444Z,98144.00
2022-08-23T19:02:53.818Z,98147.00
2022-08-23T19:05:29.454Z,98148.00
2022-08-23T19:08:17.218Z,98161.00
2022-08-23T19:10:52.287Z,98164.00
2022-08-23T19:13:27.335Z,98167.00
2022-08-23T19:16:03.465Z,98170.00
2022-08-23T19:18:44.410Z,98173.00
2022-08-23T19:21:21.938Z,98176.00
2022-08-23T19:23:58.500Z,98183.00
2022-08-23T19:26:36.094Z,98175.00
2022-08-23T19:29:11.041Z,98190.00
2022-08-23T19:31:48.031Z,98193.00
2022-08-23T19:34:23.264Z,98187.00
2022-08-23T19:37:01.146Z,98190.00
2022-08-23T19:39:37.466Z,98189.00
2022-08-23T19:42:13.917Z,98192.00
2022-08-23T19:44:49.592Z,98181.00
2022-08-23T19:47:28.567Z,98190.00
2022-08-23T19:50:05.506Z,98193.00
2022-08-23T19:52:41.291Z,98193.00
2022-08-23T19:55:16.353Z,98194.00
2022-08-23T19:57:56.471Z,98190.00
2022-08-23T20:00:33.760Z,98202.00
2022-08-23T20:03:08.978Z,98201.00
2022-08-23T20:05:43.960Z,98204.00
2022-08-23T20:08:19.543Z,98211.00
2022-08-23T20:10:54.686Z,98208.00
2022-08-23T20:13:30.952Z,98220.00
2022-08-23T20:16:06.252Z,98226.00
2022-08-23T20:18:42.253Z,98221.00
2022-08-23T20:21:18.368Z,98219.00
2022-08-23T20:24:02.022Z,98227.00
2022-08-23T20:26:42.737Z,98225.00
2022-08-23T20:29:22.661Z,98224.00
2022-08-23T20:32:06.109Z,98222.00
2022-08-23T20:34:41.387Z,98225.00
2022-08-23T20:37:17.633Z,98223.00
2022-08-23T20:39:54.298Z,98229.00
2022-08-23T20:42:29.422Z,98228.00
2022-08-23T20:45:05.660Z,98222.00
2022-08-23T20:47:41.238Z,98225.00
2022-08-23T20:50:16.411Z,98232.00
2022-08-23T20:52:51.384Z,98227.00
2022-08-23T20:55:27.933Z,98233.00
2022-08-23T20:58:03.332Z,98240.00
2022-08-23T21:00:38.339Z,98236.00
2022-08-23T21:03:13.350Z,98237.00
2022-08-23T21:05:48.682Z,98244.00
2022-08-23T21:08:24.266Z,98253.00
2022-08-23T21:11:01.501Z,98247.00
2022-08-23T21:13:37.156Z,98251.00
2022-08-23T21:16:14.360Z,98251.00
2022-08-23T21:18:50.338Z,98252.00
2022-08-23T21:21:26.790Z,98248.00
2022-08-23T21:24:03.296Z,98242.00
2022-08-23T21:26:39.529Z,98247.00
2022-08-23T21:29:14.600Z,98249.00
2022-08-23T21:31:49.558Z,98246.00
2022-08-23T21:34:24.554Z,98247.00
2022-08-23T21:37:00.036Z,98241.00
2022-08-23T21:39:35.049Z,98249.00
2022-08-23T21:42:14.933Z,98243.00
2022-08-23T21:44:50.537Z,98239.00
2022-08-23T21:47:26.079Z,98240.00
2022-08-23T21:50:01.104Z,98248.00
2022-08-23T21:52:36.583Z,98247.00
2022-08-23T21:55:11.687Z,98243.00
2022-08-23T21:57:48.529Z,98246.00
2022-08-23T22:00:23.623Z,98241.00
2022-08-23T22:02:58.744Z,98242.00
2022-08-23T22:05:39.110Z,98242.00
2022-08-23T22:08:15.829Z,98246.00
2022-08-23T22:10:58.048Z,98238.00
2022-08-23T22:13:35.069Z,98237.00
2022-08-23T22:16:10.557Z,98238.00
2022-08-23T22:18:45.800Z,98237.00
2022-08-23T22:21:21.008Z,98231.00
2022-08-23T22:23:56.162Z,98237.00
2022-08-23T22:26:32.499Z,98231.00
2022-08-23T22:29:09.478Z,98241.00
2022-08-23T22:31:44.685Z,98233.00
2022-08-23T22:34:20.317Z,98234.00
2022-08-23T22:36:56.115Z,98229.00
2022-08-23T22:39:31.113Z,98229.00
2022-08-23T22:42:06.407Z,98238.00
2022-08-23T22:44:45.108Z,98237.00
2022-08-23T22:47:20.233Z,98235.00
2022-08-23T22:49:55.571Z,98230.00
2022-08-23T22:52:30.532Z,98233.00
2022-08-23T22:55:06.285Z,98235.00
2022-08-23T22:57:41.360Z,98226.00
2022-08-23T23:00:16.488Z,98230.00
2022-08-23T23:02:51.404Z,98228.00
2022-08-23T23:05:26.435Z,98227.00
2022-08-23T23:08:19.948Z,98223.00
2022-08-23T23:11:02.182Z,98226.00
2022-08-23T23:13:38.280Z,98228.00
2022-08-23T23:16:20.459Z,98232.00
2022-08-23T23:19:15.357Z,98218.00
2022-08-23T23:21:54.238Z,98220.00
2022-08-23T23:24:34.576Z,98227.00
2022-08-23T23:27:10.019Z,98221.00
2022-08-23T23:29:45.009Z,98221.00
2022-08-23T23:32:20.991Z,98229.00
2022-08-23T23:34:58.649Z,98226.00
2022-08-23T23:37:35.886Z,98223.00
2022-08-23T23:40:11.629Z,98219.00
2022-08-23T23:42:46.850Z,98227.00
2022-08-23T23:45:22.966Z,98226.00
2022-08-23T23:47:58.059Z,98224.00
2022-08-23T23:50:33.118Z,98224.00
2022-08-23T23:53:08.029Z,98232.00
2022-08-23T23:55:43.509Z,98239.00
2022-08-23T23:58:18.420Z,98241.00
